Time;durP1;ratioP1;P1;durP2;ratioP2;P2;SDS_P1;SDS_P2;PMS_P1;PMS_P2;Temp;Humidity;BMP_temperature;BMP_pressure;BME280_temperature;BME280_humidity;BME280_pressure;Samples;Min_cycle;Max_cycle;Signal;HPM_P1;HPM_P2
2022/01/30 00:00:49;;;;;;;20.52;3.35;;;4.40;99.90;;;;;;5109823;28;20035;-62
2022/01/30 00:03:17;;;;;;;19.15;3.35;;;4.40;99.90;;;;;;5117405;27;20487;-61
2022/01/30 00:05:43;;;;;;;28.77;5.53;;;4.30;99.90;;;;;;5111572;27;20036;-60
2022/01/30 00:08:09;;;;;;;27.85;4.13;;;4.30;99.90;;;;;;5103797;28;20039;-62
2022/01/30 00:10:39;;;;;;;21.98;3.42;;;4.30;99.90;;;;;;5111105;28;20023;-62
2022/01/30 00:13:08;;;;;;;24.70;4.28;;;4.30;99.90;;;;;;5103832;27;20035;-62
2022/01/30 00:15:52;;;;;;;22.02;3.17;;;4.30;99.90;;;;;;5092248;28;20040;-62
2022/01/30 00:21:11;;;;;;;31.58;5.40;;;4.30;99.90;;;;;;5106138;28;20721;-61
2022/01/30 00:23:43;;;;;;;21.88;3.53;;;4.30;99.90;;;;;;5090624;28;20475;-62
2022/01/30 00:26:09;;;;;;;15.75;2.75;;;4.30;99.90;;;;;;5097223;28;20487;-62
2022/01/30 00:28:35;;;;;;;25.73;3.50;;;4.20;99.90;;;;;;5088305;28;20454;-59
2022/01/30 00:31:01;;;;;;;22.48;3.33;;;4.20;99.90;;;;;;5090388;28;20072;-62
2022/01/30 00:33:27;;;;;;;26.85;3.85;;;4.20;99.90;;;;;;5093060;28;20040;-62
2022/01/30 00:35:52;;;;;;;23.85;3.63;;;4.20;99.90;;;;;;5089026;28;20079;-60
2022/01/30 00:38:21;;;;;;;26.58;3.80;;;4.20;99.90;;;;;;5089199;28;20056;-61
2022/01/30 00:40:48;;;;;;;21.50;3.67;;;4.20;99.90;;;;;;5090328;28;20043;-62
2022/01/30 00:43:14;;;;;;;32.78;3.50;;;4.20;99.90;;;;;;5093872;28;20672;-62
2022/01/30 00:45:40;;;;;;;28.67;4.55;;;4.20;99.90;;;;;;5093305;28;20036;-61
2022/01/30 00:48:06;;;;;;;29.63;3.20;;;4.20;99.90;;;;;;5092252;28;20510;-62
2022/01/30 00:50:31;;;;;;;26.17;3.53;;;4.20;99.90;;;;;;5092666;28;20044;-62
2022/01/30 00:52:58;;;;;;;26.17;4.47;;;4.20;99.90;;;;;;5094972;28;20134;-62
2022/01/30 00:55:26;;;;;;;23.17;3.80;;;4.20;99.90;;;;;;5103269;28;20069;-62
2022/01/30 00:57:53;;;;;;;25.00;4.07;;;4.20;99.90;;;;;;5092273;28;20028;-61
2022/01/30 01:00:19;;;;;;;22.40;3.65;;;4.10;99.90;;;;;;5086675;28;20436;-62
2022/01/30 01:02:46;;;;;;;28.15;4.45;;;4.10;99.90;;;;;;5088624;28;20063;-62
2022/01/30 01:05:12;;;;;;;23.17;3.72;;;4.10;99.90;;;;;;5089818;28;20044;-63
2022/01/30 01:07:43;;;;;;;23.30;3.53;;;4.00;99.90;;;;;;5092840;28;20043;-62
2022/01/30 01:10:23;;;;;;;23.30;3.85;;;4.10;99.90;;;;;;5089588;28;20070;-62
2022/01/30 01:21:00;;;;;;;35.65;3.70;;;4.00;99.90;;;;;;5087298;28;20031;-62
2022/01/30 01:23:34;;;;;;;32.45;4.05;;;4.00;99.90;;;;;;5091602;28;20097;-62
2022/01/30 01:26:01;;;;;;;30.30;3.97;;;3.90;99.90;;;;;;5085269;28;20040;-60
2022/01/30 01:28:28;;;;;;;32.45;3.92;;;3.90;99.90;;;;;;5079156;28;20511;-62
2022/01/30 01:30:54;;;;;;;29.00;3.75;;;3.90;99.90;;;;;;5091804;28;20115;-62
2022/01/30 01:33:21;;;;;;;16.08;3.20;;;3.90;99.90;;;;;;5090997;28;20036;-62
2022/01/30 01:35:47;;;;;;;20.58;3.38;;;3.90;99.90;;;;;;5088103;28;20487;-61
2022/01/30 01:38:14;;;;;;;25.15;3.50;;;4.00;99.90;;;;;;5089103;28;20036;-62
2022/01/30 01:40:44;;;;;;;28.48;3.85;;;3.90;99.90;;;;;;5094899;28;20032;-63
2022/01/30 01:43:10;;;;;;;21.38;3.55;;;3.90;99.90;;;;;;5092789;28;20113;-62
2022/01/30 01:45:39;;;;;;;33.95;4.05;;;4.00;99.90;;;;;;5090274;28;20491;-63
2022/01/30 01:48:13;;;;;;;24.13;3.97;;;3.90;99.90;;;;;;5090059;28;20050;-62
2022/01/30 01:50:44;;;;;;;17.85;3.05;;;3.90;99.90;;;;;;5085619;28;20536;-62
2022/01/30 01:53:12;;;;;;;23.33;3.97;;;3.90;99.90;;;;;;5089196;28;20035;-62
2022/01/30 01:55:39;;;;;;;33.42;4.85;;;3.90;99.90;;;;;;5094135;28;20069;-63
2022/01/30 01:58:05;;;;;;;21.83;3.50;;;3.90;99.90;;;;;;5090022;28;20079;-62
2022/01/30 02:00:32;;;;;;;25.80;3.35;;;3.90;99.90;;;;;;5090864;28;20039;-62
2022/01/30 02:02:58;;;;;;;25.25;4.10;;;3.90;99.90;;;;;;5089446;28;20044;-61
2022/01/30 02:05:26;;;;;;;21.52;3.53;;;3.90;99.90;;;;;;5091142;28;20043;-61
2022/01/30 02:10:56;;;;;;;24.75;3.83;;;3.80;99.90;;;;;;5084569;28;20118;-62
2022/01/30 02:25:17;;;;;;;38.03;4.80;;;3.70;99.90;;;;;;5088946;28;20040;-62
2022/01/30 02:27:42;;;;;;;35.58;5.80;;;3.70;99.90;;;;;;5093164;28;20040;-62
2022/01/30 02:30:09;;;;;;;25.90;3.92;;;3.70;99.90;;;;;;5089031;28;20031;-62
2022/01/30 02:32:35;;;;;;;22.50;3.03;;;3.70;99.90;;;;;;5093775;28;20048;-62
2022/01/30 02:35:01;;;;;;;34.55;3.92;;;3.70;99.90;;;;;;5089224;28;20136;-62
2022/01/30 02:37:27;;;;;;;35.55;3.88;;;3.60;99.90;;;;;;5089505;28;20051;-62
2022/01/30 02:39:52;;;;;;;19.52;2.90;;;3.60;99.90;;;;;;5088698;28;20036;-62
2022/01/30 02:42:23;;;;;;;35.35;5.30;;;3.60;99.90;;;;;;5087630;28;20728;-62
2022/01/30 02:44:56;;;;;;;30.30;4.07;;;3.60;99.90;;;;;;5089314;28;20032;-62
2022/01/30 02:47:56;;;;;;;33.40;4.63;;;3.60;99.90;;;;;;5093148;28;20043;-61
2022/01/30 02:50:54;;;;;;;33.80;4.20;;;3.50;99.90;;;;;;5088715;28;20071;-62
2022/01/30 02:53:10;;;;;;;16.63;4.00;;;3.50;99.90;;;;;;5087245;28;20043;-62
2022/01/30 02:55:36;;;;;;;28.73;3.80;;;3.50;99.90;;;;;;5086434;28;20043;-62
2022/01/30 02:58:02;;;;;;;27.27;4.80;;;3.40;99.90;;;;;;5092266;28;20043;-61
2022/01/30 03:00:27;;;;;;;36.38;4.05;;;3.40;99.90;;;;;;5100514;28;20123;-63
2022/01/30 03:02:53;;;;;;;35.78;5.18;;;3.40;99.90;;;;;;5099440;28;20089;-61
2022/01/30 03:05:19;;;;;;;31.00;3.78;;;3.30;99.90;;;;;;5088649;28;20107;-62
2022/01/30 03:07:44;;;;;;;26.60;4.65;;;3.40;99.90;;;;;;5099595;28;20084;-57
2022/01/30 03:10:11;;;;;;;38.03;4.10;;;3.40;99.90;;;;;;5099036;28;20498;-63
2022/01/30 03:12:37;;;;;;;29.10;5.50;;;3.30;99.90;;;;;;5088838;28;20036;-62
2022/01/30 03:15:04;;;;;;;29.63;5.53;;;3.20;99.90;;;;;;5087568;28;20058;-62
2022/01/30 03:17:30;;;;;;;31.67;4.28;;;3.20;99.90;;;;;;5087188;28;20519;-61
2022/01/30 03:19:56;;;;;;;26.17;4.05;;;3.20;99.90;;;;;;5089055;28;20081;-62
2022/01/30 03:22:22;;;;;;;31.38;4.40;;;3.20;99.90;;;;;;5094595;28;20039;-62
2022/01/30 03:24:48;;;;;;;23.33;4.43;;;3.20;99.90;;;;;;5088263;28;20111;-59
2022/01/30 03:27:14;;;;;;;31.48;4.45;;;3.30;99.90;;;;;;5086931;28;20414;-61
2022/01/30 03:29:41;;;;;;;28.83;4.25;;;3.30;99.90;;;;;;5088024;28;20040;-60
2022/01/30 03:32:07;;;;;;;33.47;5.03;;;3.30;99.90;;;;;;5096916;28;20499;-62
2022/01/30 03:34:33;;;;;;;32.60;3.65;;;3.10;99.90;;;;;;5079836;28;20070;-61
2022/01/30 03:36:59;;;;;;;21.13;4.13;;;3.00;99.90;;;;;;5092232;28;20071;-61
2022/01/30 03:39:24;;;;;;;23.67;4.05;;;3.00;99.90;;;;;;5087194;28;20731;-62
2022/01/30 03:41:50;;;;;;;23.23;4.38;;;3.00;99.90;;;;;;5097949;28;20135;-62
2022/01/30 03:44:16;;;;;;;23.02;4.07;;;3.00;99.90;;;;;;5090216;28;20047;-62
2022/01/30 03:46:42;;;;;;;24.65;3.88;;;3.10;99.90;;;;;;5088852;28;20188;-62
2022/01/30 03:49:07;;;;;;;34.88;5.75;;;3.10;99.90;;;;;;5090897;28;20080;-61
2022/01/30 03:51:33;;;;;;;21.58;3.75;;;3.20;99.90;;;;;;5095791;28;20040;-61
2022/01/30 03:53:59;;;;;;;28.23;3.78;;;3.20;99.90;;;;;;5093197;28;20149;-62
2022/01/30 03:56:24;;;;;;;20.95;4.10;;;3.10;99.90;;;;;;5097991;28;20051;-62
2022/01/30 03:58:50;;;;;;;31.83;5.53;;;3.10;99.90;;;;;;5094302;28;20038;-62
2022/01/30 04:01:15;;;;;;;27.60;4.72;;;3.10;99.90;;;;;;5097053;28;20415;-62
2022/01/30 04:03:41;;;;;;;33.55;4.82;;;3.10;99.90;;;;;;5093847;28;20122;-61
2022/01/30 04:06:09;;;;;;;22.25;3.42;;;3.10;99.90;;;;;;5098888;28;20123;-62
2022/01/30 04:08:35;;;;;;;24.70;3.63;;;3.10;99.90;;;;;;5073531;28;20036;-60
2022/01/30 04:11:01;;;;;;;25.67;3.60;;;3.10;99.90;;;;;;5095194;28;20091;-61
2022/01/30 04:13:27;;;;;;;25.10;4.25;;;3.10;99.90;;;;;;5091401;28;20124;-61
2022/01/30 04:15:53;;;;;;;27.23;3.92;;;3.00;99.90;;;;;;5097491;28;20089;-63
2022/01/30 04:18:19;;;;;;;20.02;4.10;;;3.00;99.90;;;;;;5091447;28;20046;-61
2022/01/30 04:20:45;;;;;;;31.60;4.22;;;2.90;99.90;;;;;;5097211;28;20040;-62
2022/01/30 04:23:10;;;;;;;26.13;4.63;;;3.00;99.90;;;;;;5093448;28;20426;-62
2022/01/30 04:25:36;;;;;;;25.05;4.28;;;3.00;99.90;;;;;;5094316;28;20710;-63
2022/01/30 04:28:02;;;;;;;24.40;4.80;;;3.00;99.90;;;;;;5096909;28;20395;-62
2022/01/30 04:30:28;;;;;;;38.63;3.97;;;3.00;99.90;;;;;;5096591;28;20040;-62
2022/01/30 04:32:54;;;;;;;33.28;4.15;;;2.90;99.90;;;;;;5092334;28;20032;-62
2022/01/30 04:35:24;;;;;;;30.73;4.38;;;3.00;99.90;;;;;;5091588;28;20054;-62
2022/01/30 04:38:08;;;;;;;28.58;4.15;;;3.00;99.90;;;;;;5093236;28;20051;-61
2022/01/30 04:56:56;;;;;;;27.23;4.05;;;3.00;99.90;;;;;;5091024;28;20042;-62
2022/01/30 05:02:10;;;;;;;24.00;3.65;;;2.90;99.90;;;;;;5089956;28;20035;-61
2022/01/30 05:09:34;;;;;;;24.00;4.05;;;3.00;99.90;;;;;;5087343;28;20035;-60
2022/01/30 05:12:00;;;;;;;29.20;3.78;;;3.00;99.90;;;;;;5090381;28;20649;-62
2022/01/30 05:14:33;;;;;;;41.20;5.07;;;2.90;99.90;;;;;;5086620;28;20047;-62
2022/01/30 05:16:59;;;;;;;30.25;3.70;;;2.90;99.90;;;;;;5093162;28;20530;-62
2022/01/30 05:19:26;;;;;;;32.85;5.20;;;2.90;99.90;;;;;;4996038;28;20061;-62
2022/01/30 05:24:23;;;;;;;34.03;3.88;;;2.90;99.90;;;;;;5088053;27;20304;-60
2022/01/30 05:26:50;;;;;;;26.73;4.93;;;2.90;99.90;;;;;;5084581;28;20488;-62
2022/01/30 05:29:16;;;;;;;29.50;4.10;;;2.90;99.90;;;;;;5084193;28;20131;-61
2022/01/30 05:31:42;;;;;;;32.53;3.75;;;2.90;99.90;;;;;;5023854;27;107210;-62
2022/01/30 05:34:08;;;;;;;21.00;3.58;;;2.90;99.90;;;;;;5052637;28;20067;-64
2022/01/30 05:36:38;;;;;;;26.55;4.13;;;2.80;99.90;;;;;;5060532;28;20866;-61
2022/01/30 05:39:05;;;;;;;26.42;4.25;;;2.80;99.90;;;;;;5047238;28;20490;-62
2022/01/30 05:41:32;;;;;;;24.35;4.03;;;2.90;99.90;;;;;;5050595;28;20029;-62
2022/01/30 05:44:09;;;;;;;26.05;3.63;;;2.80;99.90;;;;;;5060405;28;20087;-62
2022/01/30 05:46:42;;;;;;;24.55;3.47;;;2.90;99.90;;;;;;5044137;28;20033;-62
2022/01/30 05:49:12;;;;;;;32.92;5.32;;;2.80;99.90;;;;;;5052840;28;20120;-63
2022/01/30 05:51:38;;;;;;;27.15;4.97;;;2.90;99.90;;;;;;5048515;28;20040;-61
2022/01/30 05:54:03;;;;;;;21.83;3.35;;;2.70;99.90;;;;;;5044290;28;20044;-61
2022/01/30 05:56:29;;;;;;;29.95;4.97;;;2.70;99.90;;;;;;5041796;28;20049;-63
2022/01/30 05:58:55;;;;;;;23.30;3.40;;;2.60;99.90;;;;;;5042859;28;20034;-62
2022/01/30 06:01:20;;;;;;;21.27;3.13;;;2.70;99.90;;;;;;5041592;28;20140;-58
2022/01/30 06:03:46;;;;;;;37.08;5.03;;;2.70;99.90;;;;;;5041019;28;20068;-60
2022/01/30 06:06:13;;;;;;;21.80;3.65;;;2.70;99.90;;;;;;5040782;28;20402;-62
2022/01/30 06:11:04;;;;;;;24.25;3.45;;;2.70;99.90;;;;;;5041551;28;20052;-61
2022/01/30 06:13:30;;;;;;;19.27;2.70;;;2.70;99.90;;;;;;5059691;28;20041;-59
2022/01/30 06:15:56;;;;;;;18.25;3.42;;;2.70;99.90;;;;;;5047425;28;20176;-59
2022/01/30 06:18:22;;;;;;;24.45;4.30;;;2.60;99.90;;;;;;5056507;28;20583;-62
2022/01/30 06:20:47;;;;;;;23.33;3.70;;;2.70;99.90;;;;;;5051707;28;20039;-62
2022/01/30 06:23:13;;;;;;;23.10;3.03;;;2.70;99.90;;;;;;5056463;28;20139;-60
2022/01/30 06:25:38;;;;;;;19.05;3.03;;;2.60;99.90;;;;;;5047472;28;20045;-62
2022/01/30 06:28:04;;;;;;;31.55;4.22;;;2.70;99.90;;;;;;5043818;28;20037;-61
2022/01/30 06:30:30;;;;;;;23.33;3.50;;;2.70;99.90;;;;;;5051174;28;20451;-62
2022/01/30 06:32:55;;;;;;;25.90;4.13;;;2.70;99.90;;;;;;5053886;28;20510;-58
2022/01/30 06:35:21;;;;;;;31.83;4.43;;;2.60;99.90;;;;;;5036473;28;20566;-60
2022/01/30 06:37:46;;;;;;;23.48;4.05;;;2.70;99.90;;;;;;5034337;28;20549;-61
2022/01/30 06:40:12;;;;;;;38.72;5.25;;;2.60;99.90;;;;;;5038147;28;20517;-59
2022/01/30 06:42:38;;;;;;;29.08;4.03;;;2.60;99.90;;;;;;5043191;28;20496;-60
2022/01/30 06:45:05;;;;;;;33.42;4.10;;;2.60;99.90;;;;;;5041921;28;20040;-60
2022/01/30 06:47:31;;;;;;;36.20;4.82;;;2.60;99.90;;;;;;5035765;28;20040;-62
2022/01/30 06:49:56;;;;;;;38.03;6.80;;;2.60;99.90;;;;;;5046752;28;20090;-65
2022/01/30 06:52:22;;;;;;;21.42;3.45;;;2.60;99.90;;;;;;5031706;28;20098;-62
2022/01/30 06:54:47;;;;;;;30.27;4.32;;;2.50;99.90;;;;;;5038196;28;20409;-61
2022/01/30 06:57:13;;;;;;;23.52;3.85;;;2.50;99.90;;;;;;5036476;28;20091;-61
2022/01/30 06:59:41;;;;;;;30.13;4.75;;;2.50;99.90;;;;;;5041441;28;20493;-61
2022/01/30 07:02:09;;;;;;;30.13;5.05;;;2.60;99.90;;;;;;5025600;28;20065;-61
2022/01/30 07:04:34;;;;;;;34.63;4.88;;;2.60;99.90;;;;;;5027240;28;20546;-62
2022/01/30 07:07:03;;;;;;;35.75;5.28;;;2.60;99.90;;;;;;5026690;28;20041;-59
2022/01/30 07:09:29;;;;;;;37.75;5.15;;;2.50;99.90;;;;;;5028905;28;20811;-62
2022/01/30 07:11:55;;;;;;;24.30;3.95;;;2.50;99.90;;;;;;5028642;28;20053;-61
2022/01/30 07:14:20;;;;;;;45.33;5.72;;;2.50;99.90;;;;;;5032901;28;20045;-61
2022/01/30 07:16:46;;;;;;;35.63;5.28;;;2.50;99.90;;;;;;5027221;28;20060;-58
2022/01/30 07:19:12;;;;;;;41.80;5.53;;;2.50;99.90;;;;;;5028559;28;20497;-58
2022/01/30 07:21:38;;;;;;;33.90;5.50;;;2.50;99.90;;;;;;5035118;28;20461;-61
2022/01/30 07:24:05;;;;;;;28.52;4.97;;;2.50;99.90;;;;;;5014496;28;20037;-62
2022/01/30 07:26:32;;;;;;;32.30;7.30;;;2.50;99.90;;;;;;5030493;28;20083;-61
2022/01/30 07:28:59;;;;;;;44.25;4.60;;;2.50;99.90;;;;;;5041367;28;20041;-60
2022/01/30 07:31:25;;;;;;;25.45;4.68;;;2.50;99.90;;;;;;5030662;28;20131;-61
2022/01/30 07:33:50;;;;;;;24.73;4.18;;;2.50;99.90;;;;;;5041707;28;20215;-61
2022/01/30 07:36:16;;;;;;;31.80;5.05;;;2.60;99.90;;;;;;5036377;28;20134;-60
2022/01/30 07:38:43;;;;;;;22.85;5.03;;;2.70;99.90;;;;;;5032687;28;20040;-60
2022/01/30 07:41:09;;;;;;;35.35;5.03;;;2.70;99.90;;;;;;5031426;28;20516;-60
2022/01/30 07:43:34;;;;;;;28.80;4.18;;;2.70;99.90;;;;;;5047306;28;20060;-60
2022/01/30 07:46:03;;;;;;;29.42;4.35;;;2.80;99.90;;;;;;5033192;28;20048;-61
2022/01/30 07:48:28;;;;;;;22.67;3.95;;;2.70;99.90;;;;;;5039815;28;20049;-59
2022/01/30 07:50:54;;;;;;;33.78;6.30;;;2.70;99.90;;;;;;5033800;28;20034;-60
2022/01/30 07:53:19;;;;;;;23.95;4.30;;;2.60;99.90;;;;;;5043060;28;20044;-61
2022/01/30 07:55:45;;;;;;;41.03;5.43;;;2.60;99.90;;;;;;5032330;28;20033;-60
2022/01/30 07:58:12;;;;;;;35.47;5.28;;;2.50;99.90;;;;;;5042605;28;20053;-59
2022/01/30 08:00:39;;;;;;;33.08;4.75;;;2.50;99.90;;;;;;5031823;28;20493;-61
2022/01/30 08:03:04;;;;;;;33.03;4.93;;;2.50;99.90;;;;;;5042262;28;20576;-59
2022/01/30 08:05:30;;;;;;;31.35;5.03;;;2.50;99.90;;;;;;5034511;28;20093;-60
2022/01/30 08:07:56;;;;;;;24.83;4.28;;;2.50;99.90;;;;;;5033611;28;20033;-60
2022/01/30 08:10:22;;;;;;;43.72;5.95;;;2.60;99.90;;;;;;5028756;28;20080;-60
2022/01/30 08:12:48;;;;;;;37.28;6.53;;;2.60;99.90;;;;;;5038484;28;20381;-59
2022/01/30 08:15:13;;;;;;;39.90;5.25;;;2.60;99.90;;;;;;5040187;28;20077;-60
2022/01/30 08:17:39;;;;;;;40.67;6.15;;;2.60;99.90;;;;;;5039573;28;20041;-59
2022/01/30 08:20:06;;;;;;;34.78;5.30;;;2.60;99.90;;;;;;5036171;28;20045;-60
2022/01/30 08:22:41;;;;;;;48.47;6.50;;;2.60;99.90;;;;;;5036950;28;20103;-60
2022/01/30 08:25:07;;;;;;;43.47;6.10;;;2.60;99.90;;;;;;5030024;28;20124;-62
2022/01/30 08:27:33;;;;;;;43.38;5.32;;;2.60;99.90;;;;;;5036940;28;20548;-61
2022/01/30 08:29:58;;;;;;;49.95;6.30;;;2.70;99.90;;;;;;5035530;28;20682;-60
2022/01/30 08:32:24;;;;;;;38.70;5.47;;;2.70;99.90;;;;;;5035528;28;20059;-61
2022/01/30 08:34:52;;;;;;;33.00;5.75;;;2.60;99.90;;;;;;5034567;28;20064;-60
2022/01/30 08:37:17;;;;;;;58.17;7.28;;;2.60;99.90;;;;;;5028371;28;20092;-61
2022/01/30 08:39:43;;;;;;;44.47;6.07;;;2.60;99.90;;;;;;5028934;28;20029;-60
2022/01/30 08:42:09;;;;;;;49.25;5.70;;;2.70;99.90;;;;;;5026474;28;20041;-61
2022/01/30 08:44:34;;;;;;;38.13;6.28;;;2.70;99.90;;;;;;5032748;28;20036;-61
2022/01/30 08:47:00;;;;;;;51.20;6.85;;;2.80;99.90;;;;;;5034990;28;20056;-61
2022/01/30 08:49:26;;;;;;;49.97;6.28;;;2.80;99.90;;;;;;5035536;28;20065;-60
2022/01/30 08:51:52;;;;;;;49.58;8.35;;;2.80;99.90;;;;;;5026369;28;20528;-61
2022/01/30 08:54:18;;;;;;;44.85;6.63;;;2.80;99.90;;;;;;5028689;28;20052;-62
2022/01/30 08:56:44;;;;;;;33.40;6.18;;;3.00;99.90;;;;;;5034359;28;20048;-61
2022/01/30 08:59:09;;;;;;;45.00;6.40;;;3.00;99.90;;;;;;5036250;28;20033;-61
2022/01/30 09:01:35;;;;;;;46.88;6.80;;;2.90;99.90;;;;;;5030681;28;20033;-60
2022/01/30 09:04:03;;;;;;;44.00;6.97;;;3.10;99.90;;;;;;5034999;28;20544;-61
2022/01/30 09:06:29;;;;;;;37.05;5.95;;;3.00;99.90;;;;;;5032095;28;20464;-61
2022/01/30 09:08:54;;;;;;;45.42;7.50;;;3.10;99.90;;;;;;5035488;28;20034;-57
2022/01/30 09:11:20;;;;;;;53.15;6.97;;;3.10;99.90;;;;;;5028975;28;20067;-61
2022/01/30 09:13:45;;;;;;;47.67;6.20;;;3.10;99.90;;;;;;5040080;28;20048;-61
2022/01/30 09:16:11;;;;;;;37.58;5.72;;;3.10;99.90;;;;;;5028328;28;20044;-61
2022/01/30 09:18:38;;;;;;;45.53;6.80;;;3.10;99.90;;;;;;5036165;28;20752;-61
2022/01/30 09:21:04;;;;;;;49.22;8.10;;;3.10;99.90;;;;;;5017264;28;20052;-60
2022/01/30 09:23:30;;;;;;;44.65;6.13;;;3.10;99.90;;;;;;5061528;28;20044;-59
2022/01/30 09:25:55;;;;;;;32.40;5.38;;;3.10;99.90;;;;;;5051557;28;20060;-66
2022/01/30 09:28:21;;;;;;;39.72;6.55;;;3.10;99.90;;;;;;5058701;28;20036;-61
2022/01/30 09:30:47;;;;;;;51.88;6.88;;;3.20;99.90;;;;;;5048575;28;20025;-60
2022/01/30 09:33:13;;;;;;;50.65;7.32;;;3.20;99.90;;;;;;5060859;28;20056;-65
2022/01/30 09:35:38;;;;;;;51.92;7.05;;;3.10;99.90;;;;;;5051994;28;20044;-62
2022/01/30 09:38:04;;;;;;;47.85;7.03;;;2.90;99.90;;;;;;5059142;28;20033;-60
2022/01/30 09:40:30;;;;;;;39.13;6.13;;;2.90;99.90;;;;;;5048296;28;20098;-62
2022/01/30 09:42:57;;;;;;;52.75;7.30;;;3.00;99.90;;;;;;5058641;28;20044;-62
2022/01/30 09:45:24;;;;;;;54.20;6.68;;;3.00;99.90;;;;;;5057425;28;20053;-60
2022/01/30 09:47:52;;;;;;;49.78;7.78;;;3.00;99.90;;;;;;5056327;28;20032;-60
2022/01/30 09:50:21;;;;;;;46.95;6.78;;;2.90;99.90;;;;;;5040116;28;20037;-60
2022/01/30 09:52:48;;;;;;;41.92;6.60;;;3.00;99.90;;;;;;5044748;28;20037;-60
2022/01/30 09:55:15;;;;;;;42.45;6.25;;;3.00;99.90;;;;;;5058940;28;20041;-60
2022/01/30 09:57:41;;;;;;;44.42;7.70;;;3.10;99.90;;;;;;5056995;28;20467;-63
2022/01/30 10:00:09;;;;;;;47.35;6.95;;;3.10;99.90;;;;;;5052538;28;20040;-59
2022/01/30 10:02:35;;;;;;;36.65;5.75;;;3.20;99.90;;;;;;5053719;28;20119;-61
2022/01/30 10:05:01;;;;;;;49.83;10.85;;;3.10;99.90;;;;;;5054360;28;20171;-62
2022/01/30 10:07:46;;;;;;;36.65;6.53;;;3.40;99.90;;;;;;5050808;28;20104;-60
2022/01/30 10:10:16;;;;;;;35.40;6.38;;;3.60;99.90;;;;;;5047446;28;20051;-57
2022/01/30 10:13:14;;;;;;;38.00;6.20;;;3.50;99.90;;;;;;5059894;28;20091;-61
2022/01/30 10:15:56;;;;;;;39.58;5.57;;;3.70;99.90;;;;;;5057360;28;20037;-60
2022/01/30 10:18:24;;;;;;;52.42;6.78;;;3.70;99.90;;;;;;5060989;28;20075;-61
2022/01/30 10:20:50;;;;;;;50.22;6.80;;;3.80;99.90;;;;;;5047948;28;20037;-61
2022/01/30 10:23:15;;;;;;;46.28;6.78;;;3.70;99.90;;;;;;5048967;28;20053;-61
2022/01/30 10:25:47;;;;;;;48.60;7.63;;;3.60;99.90;;;;;;5048504;28;20508;-60
2022/01/30 10:28:15;;;;;;;40.88;6.88;;;3.60;99.90;;;;;;5054889;28;20044;-61
2022/01/30 10:30:51;;;;;;;51.15;8.63;;;3.70;99.90;;;;;;5053857;28;20125;-59
2022/01/30 10:33:38;;;;;;;51.17;8.75;;;3.60;99.90;;;;;;5059760;28;20044;-62
2022/01/30 10:36:04;;;;;;;51.40;7.50;;;3.50;99.90;;;;;;5053218;28;20703;-62
2022/01/30 10:39:00;;;;;;;37.22;6.95;;;3.50;99.90;;;;;;5053432;28;20424;-62
2022/01/30 10:41:34;;;;;;;37.03;5.70;;;3.50;99.90;;;;;;5055273;28;20049;-63
2022/01/30 10:44:04;;;;;;;58.00;7.88;;;3.50;99.90;;;;;;5066824;28;20049;-62
2022/01/30 10:46:43;;;;;;;44.25;7.43;;;3.40;99.90;;;;;;5052413;28;20101;-63
2022/01/30 10:49:16;;;;;;;45.53;7.55;;;3.40;99.90;;;;;;5059121;28;20037;-63
2022/01/30 10:52:13;;;;;;;49.20;7.22;;;3.30;99.90;;;;;;5055039;28;20060;-62
2022/01/30 10:54:39;;;;;;;36.60;6.40;;;3.30;99.90;;;;;;5036981;28;20045;-61
2022/01/30 10:57:10;;;;;;;44.33;6.93;;;3.30;99.90;;;;;;5048790;28;20063;-61
2022/01/30 10:59:42;;;;;;;41.13;7.45;;;3.30;99.90;;;;;;5041447;28;20040;-62
2022/01/30 11:02:18;;;;;;;46.53;7.22;;;3.30;99.90;;;;;;5050964;28;20037;-64
2022/01/30 11:04:47;;;;;;;34.55;6.15;;;3.40;99.90;;;;;;5048859;28;20036;-62
2022/01/30 11:07:19;;;;;;;53.15;6.38;;;3.40;99.90;;;;;;5049132;28;20076;-62
2022/01/30 11:10:00;;;;;;;53.20;6.78;;;3.40;99.90;;;;;;5046422;28;20037;-62
2022/01/30 11:17:46;;;;;;;45.92;7.50;;;3.30;99.90;;;;;;5046852;28;20091;-63
2022/01/30 11:20:16;;;;;;;54.75;6.82;;;3.30;99.90;;;;;;5031165;28;20132;-63
2022/01/30 11:22:46;;;;;;;56.30;7.32;;;3.30;99.90;;;;;;5047875;28;20045;-61
2022/01/30 11:25:12;;;;;;;37.10;7.28;;;3.30;99.90;;;;;;5049892;28;20052;-61
2022/01/30 11:27:43;;;;;;;48.42;6.72;;;3.30;99.90;;;;;;5047667;28;20052;-63
2022/01/30 11:30:11;;;;;;;58.75;9.35;;;3.40;99.90;;;;;;5047355;28;20080;-63
2022/01/30 11:32:39;;;;;;;33.83;6.53;;;3.50;99.90;;;;;;5043728;28;20456;-62
2022/01/30 11:35:05;;;;;;;39.60;7.32;;;3.30;99.90;;;;;;5051824;28;20033;-63
2022/01/30 11:37:33;;;;;;;33.67;7.07;;;3.40;99.90;;;;;;5048039;28;20037;-62
2022/01/30 11:40:00;;;;;;;41.20;6.07;;;3.50;99.90;;;;;;5048139;28;20041;-62
2022/01/30 11:42:36;;;;;;;39.20;6.78;;;3.60;99.90;;;;;;5056398;28;20056;-62
2022/01/30 11:45:04;;;;;;;48.97;6.72;;;3.50;99.90;;;;;;5059966;28;20048;-63
2022/01/30 11:47:42;;;;;;;46.90;6.90;;;3.40;99.90;;;;;;5054664;28;20040;-60
2022/01/30 11:50:09;;;;;;;55.30;7.53;;;3.40;99.90;;;;;;5051697;28;20116;-63
2022/01/30 11:52:52;;;;;;;45.80;6.13;;;3.50;99.90;;;;;;5047405;28;20068;-62
2022/01/30 11:55:40;;;;;;;47.40;6.95;;;3.40;99.90;;;;;;5053878;28;20045;-63
2022/01/30 11:58:07;;;;;;;42.08;5.97;;;3.30;99.90;;;;;;5046485;28;20036;-62
2022/01/30 12:00:35;;;;;;;50.30;6.57;;;3.40;99.90;;;;;;5045187;28;20500;-62
2022/01/30 12:03:20;;;;;;;51.92;7.45;;;3.40;99.90;;;;;;5054954;28;20053;-62
2022/01/30 12:05:45;;;;;;;40.35;7.13;;;3.40;99.90;;;;;;5045913;28;20167;-64
2022/01/30 12:08:42;;;;;;;47.30;7.43;;;3.30;99.90;;;;;;5046760;28;20128;-64
2022/01/30 12:11:50;;;;;;;36.13;6.53;;;3.40;99.90;;;;;;5045402;28;20076;-66
2022/01/30 12:14:21;;;;;;;32.72;6.63;;;3.40;99.90;;;;;;5026940;28;20052;-65
2022/01/30 12:16:57;;;;;;;53.00;9.18;;;3.60;99.90;;;;;;5052552;28;20377;-65
2022/01/30 12:19:45;;;;;;;47.20;7.22;;;3.60;99.90;;;;;;5057483;28;20072;-64
2022/01/30 12:22:16;;;;;;;48.30;7.95;;;3.50;99.90;;;;;;5054758;28;20120;-64
2022/01/30 12:24:51;;;;;;;45.80;7.93;;;3.50;99.90;;;;;;5052670;28;20033;-62
2022/01/30 12:27:18;;;;;;;47.03;7.72;;;3.50;99.90;;;;;;5054503;28;20052;-65
2022/01/30 12:29:51;;;;;;;48.60;8.30;;;3.40;99.90;;;;;;5058003;28;20071;-64
2022/01/30 12:32:23;;;;;;;53.50;8.10;;;3.50;99.90;;;;;;5052642;28;20127;-63
2022/01/30 12:35:01;;;;;;;47.33;8.50;;;3.50;99.90;;;;;;5057725;28;20484;-64
2022/01/30 12:37:29;;;;;;;43.88;8.05;;;3.40;99.90;;;;;;5051211;28;20495;-65
2022/01/30 12:39:57;;;;;;;50.78;7.90;;;3.50;99.90;;;;;;5045787;28;20037;-65
2022/01/30 12:42:26;;;;;;;37.85;7.22;;;3.60;99.90;;;;;;5049220;28;20029;-64
2022/01/30 12:44:57;;;;;;;44.35;7.65;;;3.60;99.90;;;;;;5046728;28;20508;-63
2022/01/30 12:47:23;;;;;;;42.45;6.50;;;3.60;99.90;;;;;;5047511;28;20071;-64
2022/01/30 12:49:52;;;;;;;51.13;8.93;;;3.50;99.90;;;;;;5046727;28;20153;-64
2022/01/30 12:52:32;;;;;;;54.72;7.57;;;3.60;99.90;;;;;;5051547;28;20639;-64
2022/01/30 12:55:02;;;;;;;47.97;7.15;;;3.40;99.90;;;;;;5052232;28;20065;-63
2022/01/30 12:57:30;;;;;;;49.00;8.13;;;3.30;99.90;;;;;;5048049;28;20396;-61
2022/01/30 12:59:58;;;;;;;45.80;8.45;;;3.40;99.90;;;;;;5047819;28;20036;-62
2022/01/30 13:02:26;;;;;;;48.30;10.30;;;3.40;99.90;;;;;;5046044;28;20493;-62
2022/01/30 13:05:05;;;;;;;46.20;8.13;;;3.50;99.90;;;;;;5050650;28;20037;-63
2022/01/30 13:07:30;;;;;;;45.10;7.82;;;3.50;99.90;;;;;;5050902;28;20103;-64
2022/01/30 13:10:24;;;;;;;49.33;7.60;;;3.60;99.90;;;;;;5045562;28;20071;-63
2022/01/30 13:12:50;;;;;;;48.38;7.85;;;3.70;99.90;;;;;;5056199;28;20052;-63
2022/01/30 13:15:19;;;;;;;53.63;8.50;;;3.70;99.90;;;;;;5053315;28;20072;-64
2022/01/30 13:17:45;;;;;;;43.15;6.65;;;3.70;99.90;;;;;;5046254;28;20036;-63
2022/01/30 13:20:13;;;;;;;74.47;9.65;;;3.70;99.90;;;;;;5045593;28;20037;-63
2022/01/30 13:22:41;;;;;;;47.58;8.55;;;3.80;99.90;;;;;;5046589;28;20045;-63
2022/01/30 13:25:17;;;;;;;47.30;7.28;;;3.70;99.90;;;;;;5055607;28;20622;-64
2022/01/30 13:27:52;;;;;;;49.60;6.35;;;3.70;99.90;;;;;;5045871;28;20044;-65
2022/01/30 13:30:21;;;;;;;55.95;9.13;;;3.70;99.90;;;;;;5049378;28;20044;-63
2022/01/30 13:32:47;;;;;;;48.15;6.90;;;3.80;99.90;;;;;;5046908;28;20037;-63
2022/01/30 13:35:14;;;;;;;48.78;7.18;;;3.80;99.90;;;;;;5053668;28;20069;-64
2022/01/30 13:37:41;;;;;;;53.88;6.80;;;3.70;99.90;;;;;;5050855;28;20389;-65
2022/01/30 13:40:18;;;;;;;42.97;6.95;;;3.70;99.90;;;;;;5047571;28;20070;-65
2022/01/30 13:47:54;;;;;;;178.80;77.38;;;3.70;99.90;;;;;;5061664;28;20060;-62
2022/01/30 13:50:21;;;;;;;62.33;13.82;;;3.60;99.90;;;;;;5056810;28;20061;-64
2022/01/30 13:52:47;;;;;;;44.95;7.68;;;3.70;99.90;;;;;;5061818;28;20040;-62
2022/01/30 13:55:13;;;;;;;59.50;6.72;;;3.80;99.90;;;;;;5057891;28;20064;-63
2022/01/30 13:57:41;;;;;;;46.42;7.97;;;3.70;99.90;;;;;;5060014;28;20036;-63